Time;durP1;ratioP1;P1;durP2;ratioP2;P2;SDS_P1;SDS_P2;PMS_P1;PMS_P2;Temp;Humidity;BMP_temperature;BMP_pressure;BME280_temperature;BME280_humidity;BME280_pressure;Samples;Min_cycle;Max_cycle;Signal;HPM_P1;HPM_P2
2023/06/18 00:00:57;;;;;;;;;;;19.30;99.90;;;;;;5027600;28;20367;-69
2023/06/18 00:03:23;;;;;;;;;;;19.30;99.90;;;;;;5011791;28;19930;-70
2023/06/18 00:05:50;;;;;;;;;;;19.30;99.90;;;;;;5031259;28;19975;-68
2023/06/18 00:08:17;;;;;;;;;;;19.30;99.90;;;;;;5022244;28;19925;-68
2023/06/18 00:10:44;;;;;;;;;;;19.40;99.90;;;;;;5014204;28;20010;-69
2023/06/18 00:13:11;;;;;;;;;;;19.40;99.90;;;;;;5027101;28;19925;-68
2023/06/18 00:15:37;;;;;;;;;;;19.40;99.90;;;;;;5027538;28;19926;-69
2023/06/18 00:18:06;;;;;;;;;;;19.40;99.90;;;;;;5027038;28;20389;-69
2023/06/18 00:20:33;;;;;;;;;;;19.30;99.90;;;;;;5011444;28;20281;-69
2023/06/18 00:23:00;;;;;;;;;;;19.10;99.90;;;;;;5011872;28;19972;-69
2023/06/18 00:25:27;;;;;;;;;;;18.80;99.90;;;;;;5028503;28;19932;-69
2023/06/18 00:27:55;;;;;;;;;;;18.90;99.90;;;;;;5026549;28;19929;-69
2023/06/18 00:30:22;;;;;;;;;;;18.80;99.90;;;;;;5027932;28;19925;-69
2023/06/18 00:32:49;;;;;;;;;;;18.90;99.90;;;;;;5008116;28;19932;-67
2023/06/18 00:35:17;;;;;;;;;;;18.90;99.90;;;;;;5027444;28;19931;-69
2023/06/18 00:37:44;;;;;;;;;;;18.90;99.90;;;;;;5006673;28;19929;-68
2023/06/18 00:40:12;;;;;;;;;;;18.90;99.90;;;;;;5026764;28;19961;-68
2023/06/18 00:42:39;;;;;;;;;;;18.80;99.90;;;;;;5032652;28;19925;-69
2023/06/18 00:45:08;;;;;;;;;;;18.80;99.90;;;;;;5020562;28;19933;-69
2023/06/18 00:47:35;;;;;;;;;;;18.80;99.90;;;;;;5015572;28;19976;-68
2023/06/18 00:50:03;;;;;;;;;;;18.80;99.90;;;;;;5024157;28;19948;-67
2023/06/18 00:52:33;;;;;;;;;;;18.80;99.90;;;;;;5007405;28;19929;-67
2023/06/18 00:54:59;;;;;;;;;;;18.80;99.90;;;;;;5010896;28;19925;-66
2023/06/18 00:57:26;;;;;;;;;;;18.70;99.90;;;;;;5030247;28;19932;-68
2023/06/18 00:59:53;;;;;;;;;;;18.70;99.90;;;;;;5009749;28;19925;-68
2023/06/18 01:02:23;;;;;;;;;;;18.60;99.90;;;;;;5018679;28;20360;-67
2023/06/18 01:04:55;;;;;;;;;;;18.50;99.90;;;;;;5013507;28;20508;-68
2023/06/18 01:07:22;;;;;;;;;;;18.50;99.90;;;;;;5023036;28;19925;-68
2023/06/18 01:09:53;;;;;;;;;;;18.50;99.90;;;;;;5011490;28;20273;-66
2023/06/18 01:12:20;;;;;;;;;;;18.40;99.90;;;;;;5012898;28;19929;-69
2023/06/18 01:14:50;;;;;;;;;;;18.40;99.90;;;;;;5011725;28;19958;-69
2023/06/18 01:17:18;;;;;;;;;;;18.30;99.90;;;;;;5015004;28;19924;-69
2023/06/18 01:19:47;;;;;;;;;;;18.30;99.90;;;;;;5009418;28;20039;-68
2023/06/18 01:22:21;;;;;;;;;;;18.20;99.90;;;;;;5019935;28;19929;-68
2023/06/18 01:24:51;;;;;;;;;;;18.10;99.90;;;;;;5005171;28;20474;-68
2023/06/18 01:27:21;;;;;;;;;;;18.10;99.90;;;;;;5022075;28;20342;-68
2023/06/18 01:29:49;;;;;;;;;;;17.90;99.90;;;;;;5030210;28;19926;-68
2023/06/18 01:32:16;;;;;;;;;;;17.90;99.90;;;;;;5010714;28;20008;-69
2023/06/18 01:34:43;;;;;;;;;;;17.90;99.90;;;;;;5012983;28;20016;-69
2023/06/18 01:37:14;;;;;;;;;;;17.90;99.90;;;;;;5012415;28;19929;-69
2023/06/18 01:39:46;;;;;;;;;;;18.00;99.90;;;;;;5021828;28;19932;-68
2023/06/18 01:42:15;;;;;;;;;;;17.90;99.90;;;;;;5009535;28;19928;-68
2023/06/18 01:44:45;;;;;;;;;;;17.90;99.90;;;;;;5028238;28;20027;-69
2023/06/18 01:47:14;;;;;;;;;;;17.90;99.90;;;;;;5023144;28;20304;-70
2023/06/18 01:49:42;;;;;;;;;;;17.80;99.90;;;;;;5006068;28;19925;-69
2023/06/18 01:52:12;;;;;;;;;;;17.80;99.90;;;;;;5012222;28;20012;-68
2023/06/18 01:54:39;;;;;;;;;;;17.80;99.90;;;;;;5017695;28;19925;-69
2023/06/18 01:57:06;;;;;;;;;;;17.70;99.90;;;;;;5009319;28;20378;-69
2023/06/18 01:59:33;;;;;;;;;;;17.70;99.90;;;;;;5028319;28;20458;-69
2023/06/18 02:02:01;;;;;;;;;;;17.60;99.90;;;;;;5006707;28;19964;-69
2023/06/18 02:04:28;;;;;;;;;;;17.60;99.90;;;;;;5020660;28;20413;-69
2023/06/18 02:06:55;;;;;;;;;;;17.60;99.90;;;;;;5021806;28;20399;-69
2023/06/18 02:09:22;;;;;;;;;;;17.50;99.90;;;;;;5023895;28;20391;-68
2023/06/18 02:11:49;;;;;;;;;;;17.50;99.90;;;;;;5007703;28;19925;-69
2023/06/18 02:14:16;;;;;;;;;;;17.50;99.90;;;;;;5012596;28;20423;-68
2023/06/18 02:16:42;;;;;;;;;;;17.40;99.90;;;;;;5012503;28;19925;-69
2023/06/18 02:19:10;;;;;;;;;;;17.40;99.90;;;;;;5026748;28;19975;-68
2023/06/18 02:21:37;;;;;;;;;;;17.40;99.90;;;;;;5025202;28;20302;-69
2023/06/18 02:24:05;;;;;;;;;;;17.40;99.90;;;;;;5012064;28;19933;-68
2023/06/18 02:26:32;;;;;;;;;;;17.30;99.90;;;;;;5027534;28;20419;-67
2023/06/18 02:28:59;;;;;;;;;;;17.30;99.90;;;;;;5014526;28;20396;-69
2023/06/18 02:31:26;;;;;;;;;;;17.20;99.90;;;;;;5013155;28;19925;-69
2023/06/18 02:33:52;;;;;;;;;;;17.20;99.90;;;;;;5023161;28;19932;-69
2023/06/18 02:36:21;;;;;;;;;;;17.10;99.90;;;;;;5021643;28;20312;-69
2023/06/18 02:38:52;;;;;;;;;;;17.10;99.90;;;;;;4997678;28;20259;-69
2023/06/18 02:41:18;;;;;;;;;;;17.00;99.90;;;;;;5027206;28;20384;-68
2023/06/18 02:43:49;;;;;;;;;;;17.00;99.90;;;;;;5011046;28;19933;-69
2023/06/18 02:46:16;;;;;;;;;;;17.00;99.90;;;;;;5020257;28;19941;-68
2023/06/18 02:48:42;;;;;;;;;;;17.00;99.90;;;;;;5022214;28;19925;-67
2023/06/18 02:51:09;;;;;;;;;;;17.00;99.90;;;;;;5007881;28;20312;-67
2023/06/18 02:53:38;;;;;;;;;;;16.90;99.90;;;;;;5015747;28;19925;-68
2023/06/18 02:56:05;;;;;;;;;;;16.90;99.90;;;;;;5007385;28;20316;-68
2023/06/18 02:58:32;;;;;;;;;;;16.90;99.90;;;;;;5019801;28;19925;-68
2023/06/18 03:01:02;;;;;;;;;;;16.90;99.90;;;;;;5025407;28;19925;-69
2023/06/18 03:03:34;;;;;;;;;;;16.90;99.90;;;;;;5005989;28;20012;-68
2023/06/18 03:06:01;;;;;;;;;;;16.90;99.90;;;;;;5012767;28;19932;-68
2023/06/18 03:08:28;;;;;;;;;;;16.90;99.90;;;;;;5020269;28;19956;-69
2023/06/18 03:10:57;;;;;;;;;;;16.90;99.90;;;;;;5007409;28;20431;-68
2023/06/18 03:13:24;;;;;;;;;;;17.00;99.90;;;;;;5010892;28;19926;-68
2023/06/18 03:15:55;;;;;;;;;;;16.90;99.90;;;;;;5003191;28;19933;-68
2023/06/18 03:18:21;;;;;;;;;;;16.90;99.90;;;;;;4997260;28;19926;-66
2023/06/18 03:20:50;;;;;;;;;;;16.80;99.90;;;;;;5009200;28;19933;-69
2023/06/18 03:23:16;;;;;;;;;;;16.80;99.90;;;;;;5016382;28;19931;-68
2023/06/18 03:25:47;;;;;;;;;;;16.80;99.90;;;;;;5029331;28;19932;-69
2023/06/18 03:28:22;;;;;;;;;;;16.80;99.90;;;;;;5017027;28;20008;-68
2023/06/18 03:30:49;;;;;;;;;;;16.80;99.90;;;;;;5023330;28;19925;-68
2023/06/18 03:33:17;;;;;;;;;;;16.80;99.90;;;;;;5019578;28;20410;-68
2023/06/18 03:35:46;;;;;;;;;;;16.80;99.90;;;;;;5030054;28;20408;-68
2023/06/18 03:38:13;;;;;;;;;;;16.70;99.90;;;;;;5017521;28;19976;-68
2023/06/18 03:40:40;;;;;;;;;;;16.60;99.90;;;;;;5025774;28;19925;-69
2023/06/18 03:43:07;;;;;;;;;;;16.60;99.90;;;;;;5057803;22;19990;-70
2023/06/18 03:45:35;;;;;;;;;;;16.60;99.90;;;;;;5031311;28;19925;-70
2023/06/18 03:48:02;;;;;;;;;;;16.60;99.90;;;;;;5036423;28;19932;-69
2023/06/18 03:50:38;;;;;;;;;;;16.60;99.90;;;;;;5031527;28;19925;-70
2023/06/18 03:53:04;;;;;;;;;;;16.60;99.90;;;;;;5033780;28;20285;-70
2023/06/18 03:55:31;;;;;;;;;;;16.60;99.90;;;;;;5033859;28;20376;-70
2023/06/18 03:57:59;;;;;;;;;;;16.70;99.90;;;;;;5033900;28;19929;-71
2023/06/18 04:00:26;;;;;;;;;;;16.70;99.90;;;;;;5054399;28;19975;-70
2023/06/18 04:02:54;;;;;;;;;;;16.80;99.90;;;;;;5033560;28;19929;-70
2023/06/18 04:05:21;;;;;;;;;;;16.80;99.90;;;;;;5034376;28;20288;-71
2023/06/18 04:07:48;;;;;;;;;;;16.90;99.90;;;;;;5039094;28;19925;-70
2023/06/18 04:10:17;;;;;;;;;;;17.00;99.90;;;;;;5035159;28;19975;-70
2023/06/18 04:12:43;;;;;;;;;;;17.00;99.90;;;;;;5037937;28;19925;-70
2023/06/18 04:15:10;;;;;;;;;;;17.10;99.90;;;;;;5033296;28;19933;-69
2023/06/18 04:17:40;;;;;;;;;;;17.10;99.90;;;;;;5033656;28;19933;-70
2023/06/18 04:20:11;;;;;;;;;;;17.20;99.90;;;;;;5056074;28;19929;-70
2023/06/18 04:22:38;;;;;;;;;;;17.20;99.90;;;;;;5042395;28;19925;-70
2023/06/18 04:25:05;;;;;;;;;;;17.30;99.90;;;;;;5038271;28;19925;-70
2023/06/18 04:27:33;;;;;;;;;;;17.40;99.90;;;;;;5042764;28;19925;-70
2023/06/18 04:30:00;;;;;;;;;;;17.50;99.90;;;;;;5031852;28;19933;-70
2023/06/18 04:32:27;;;;;;;;;;;17.60;99.90;;;;;;5039691;28;19929;-70
2023/06/18 04:34:56;;;;;;;;;;;17.80;99.90;;;;;;5036529;28;19925;-70
2023/06/18 04:37:27;;;;;;;;;;;17.80;99.90;;;;;;5039047;28;19926;-69
2023/06/18 04:39:54;;;;;;;;;;;17.90;99.90;;;;;;5052568;28;19925;-70
2023/06/18 04:42:21;;;;;;;;;;;18.00;99.90;;;;;;5032441;28;20380;-70
2023/06/18 04:44:48;;;;;;;;;;;18.10;99.90;;;;;;5035052;28;20377;-70
2023/06/18 04:47:15;;;;;;;;;;;18.20;99.90;;;;;;5032623;28;19929;-70
2023/06/18 04:49:43;;;;;;;;;;;18.30;99.90;;;;;;5034264;28;19931;-70
2023/06/18 04:52:11;;;;;;;;;;;18.40;99.90;;;;;;5041016;28;19932;-70
2023/06/18 04:54:40;;;;;;;;;;;18.40;99.90;;;;;;5045640;28;19932;-70
2023/06/18 04:57:09;;;;;;;;;;;18.50;99.90;;;;;;5039012;28;20372;-70
2023/06/18 04:59:36;;;;;;;;;;;18.60;99.90;;;;;;5034097;28;20008;-70
2023/06/18 05:02:04;;;;;;;;;;;18.70;99.90;;;;;;5047008;28;19980;-70
2023/06/18 05:04:30;;;;;;;;;;;18.80;99.90;;;;;;5032948;28;19960;-70
2023/06/18 05:06:57;;;;;;;;;;;18.80;99.90;;;;;;5039053;28;19924;-71
2023/06/18 05:09:27;;;;;;;;;;;18.90;99.90;;;;;;5041683;28;19931;-71
2023/06/18 05:11:55;;;;;;;;;;;18.90;99.90;;;;;;5034085;28;19925;-71
2023/06/18 05:14:22;;;;;;;;;;;19.00;99.90;;;;;;5029900;28;19932;-71
2023/06/18 05:16:49;;;;;;;;;;;19.00;99.90;;;;;;5047094;28;19930;-71
2023/06/18 05:19:16;;;;;;;;;;;19.10;99.90;;;;;;5035353;28;19925;-70
2023/06/18 05:21:43;;;;;;;;;;;19.10;99.90;;;;;;5033111;28;19929;-71
2023/06/18 05:24:11;;;;;;;;;;;19.20;99.90;;;;;;5037905;28;19929;-70
2023/06/18 05:26:38;;;;;;;;;;;19.30;99.90;;;;;;5040386;28;19952;-70
2023/06/18 05:29:06;;;;;;;;;;;19.40;99.90;;;;;;5038277;28;19924;-70
2023/06/18 05:31:33;;;;;;;;;;;19.50;99.90;;;;;;5028289;28;19925;-71
2023/06/18 05:34:02;;;;;;;;;;;19.50;99.90;;;;;;5047719;28;19944;-71
2023/06/18 05:36:30;;;;;;;;;;;19.60;99.90;;;;;;5031515;28;19929;-71
2023/06/18 05:38:59;;;;;;;;;;;19.70;99.90;;;;;;5048477;28;19932;-71
2023/06/18 05:41:27;;;;;;;;;;;19.70;99.90;;;;;;5031118;28;19932;-71
2023/06/18 05:43:54;;;;;;;;;;;19.90;99.90;;;;;;5032148;28;20304;-71
2023/06/18 05:46:23;;;;;;;;;;;20.00;99.90;;;;;;5048579;28;20402;-70
2023/06/18 05:48:50;;;;;;;;;;;20.10;99.90;;;;;;5045987;28;20345;-71
2023/06/18 05:51:19;;;;;;;;;;;20.20;99.90;;;;;;5034987;28;20414;-71
2023/06/18 05:53:45;;;;;;;;;;;20.30;99.90;;;;;;5047927;28;20024;-72
2023/06/18 05:56:14;;;;;;;;;;;20.50;99.90;;;;;;5030924;28;19933;-70
2023/06/18 05:58:41;;;;;;;;;;;20.60;99.90;;;;;;5031206;28;19925;-70
2023/06/18 06:01:08;;;;;;;;;;;20.70;99.90;;;;;;5031386;28;19925;-70
2023/06/18 06:03:37;;;;;;;;;;;20.90;99.90;;;;;;5032138;28;20048;-70
2023/06/18 06:06:04;;;;;;;;;;;21.00;99.90;;;;;;5047482;28;20399;-70
2023/06/18 06:08:32;;;;;;;;;;;21.10;99.90;;;;;;5037550;28;20019;-70
2023/06/18 06:11:01;;;;;;;;;;;21.30;99.90;;;;;;5032529;28;20292;-71
2023/06/18 06:13:28;;;;;;;;;;;21.40;99.90;;;;;;5030889;28;19925;-70
2023/06/18 06:16:05;;;;;;;;;;;21.50;99.90;;;;;;5047468;28;20024;-71
2023/06/18 06:18:32;;;;;;;;;;;21.60;99.90;;;;;;5032043;28;19932;-71
2023/06/18 06:21:01;;;;;;;;;;;21.70;99.90;;;;;;5037117;28;19936;-71
2023/06/18 06:23:30;;;;;;;;;;;21.90;99.90;;;;;;5034764;28;19969;-70
2023/06/18 06:25:57;;;;;;;;;;;22.00;99.90;;;;;;5031193;28;19925;-71
2023/06/18 06:28:24;;;;;;;;;;;22.10;99.90;;;;;;5025961;28;19925;-72
2023/06/18 06:30:51;;;;;;;;;;;22.20;99.90;;;;;;5045966;28;19925;-72
2023/06/18 06:33:17;;;;;;;;;;;22.30;99.90;;;;;;5032472;28;19925;-71
2023/06/18 06:35:45;;;;;;;;;;;22.50;99.90;;;;;;5032324;28;20301;-71
2023/06/18 06:38:14;;;;;;;;;;;22.60;99.90;;;;;;5030433;28;19932;-71
2023/06/18 06:40:43;;;;;;;;;;;22.80;99.90;;;;;;5032289;28;20012;-71
2023/06/18 06:43:10;;;;;;;;;;;23.00;99.90;;;;;;5029156;28;19929;-71
2023/06/18 06:45:57;;;;;;;;;;;23.10;99.90;;;;;;5045707;28;19925;-70
2023/06/18 06:48:44;;;;;;;;;;;23.30;99.90;;;;;;5050688;28;19932;-71
2023/06/18 06:51:35;;;;;;;;;;;23.40;99.90;;;;;;5029024;28;19940;-70
2023/06/18 06:54:11;;;;;;;;;;;23.40;99.90;;;;;;5030189;28;19925;-71
2023/06/18 06:56:38;;;;;;;;;;;23.60;99.90;;;;;;5030004;28;19925;-69
2023/06/18 06:59:05;;;;;;;;;;;23.60;99.90;;;;;;5030415;28;20396;-71
2023/06/18 07:01:32;;;;;;;;;;;23.70;99.90;;;;;;5030547;28;20395;-70
2023/06/18 07:03:59;;;;;;;;;;;23.80;99.90;;;;;;5024060;28;19951;-71
2023/06/18 07:06:25;;;;;;;;;;;23.90;99.90;;;;;;5028866;28;19929;-71
2023/06/18 07:08:53;;;;;;;;;;;24.00;99.90;;;;;;5025608;28;19933;-70
2023/06/18 07:11:21;;;;;;;;;;;24.10;99.90;;;;;;5026132;28;19925;-70
2023/06/18 07:13:48;;;;;;;;;;;24.20;99.90;;;;;;5028982;28;19965;-70
2023/06/18 07:16:14;;;;;;;;;;;24.40;99.90;;;;;;5045382;28;20282;-70
2023/06/18 07:18:41;;;;;;;;;;;24.50;99.90;;;;;;5034731;28;19975;-71
2023/06/18 07:21:08;;;;;;;;;;;24.70;99.90;;;;;;5032837;28;19937;-70
2023/06/18 07:23:35;;;;;;;;;;;24.80;99.90;;;;;;5030342;28;19929;-70
2023/06/18 07:26:01;;;;;;;;;;;24.90;99.90;;;;;;5028749;28;19940;-70
2023/06/18 07:28:30;;;;;;;;;;;25.10;99.90;;;;;;5045521;28;19925;-70
2023/06/18 07:30:57;;;;;;;;;;;25.10;99.90;;;;;;5028819;28;20484;-71
2023/06/18 07:33:23;;;;;;;;;;;25.10;99.90;;;;;;5028516;28;19929;-71
2023/06/18 07:35:50;;;;;;;;;;;25.30;99.90;;;;;;5030308;28;19929;-71
2023/06/18 07:38:17;;;;;;;;;;;25.50;99.90;;;;;;5028819;28;19932;-71
2023/06/18 07:40:44;;;;;;;;;;;25.60;99.90;;;;;;5028697;28;19929;-71
2023/06/18 07:43:10;;;;;;;;;;;25.60;99.90;;;;;;5028706;28;19933;-71
2023/06/18 07:45:39;;;;;;;;;;;25.60;99.90;;;;;;5028536;28;19983;-71
2023/06/18 07:48:07;;;;;;;;;;;25.60;99.90;;;;;;5025981;28;19925;-71
2023/06/18 07:50:34;;;;;;;;;;;25.80;99.90;;;;;;5045151;28;19929;-71
2023/06/18 07:53:01;;;;;;;;;;;25.70;99.90;;;;;;5028783;28;19959;-73
2023/06/18 07:55:27;;;;;;;;;;;25.10;99.90;;;;;;5045048;28;20439;-71
2023/06/18 07:57:55;;;;;;;;;;;25.10;99.90;;;;;;5033247;28;19929;-71
2023/06/18 08:00:22;;;;;;;;;;;25.00;99.90;;;;;;5027788;28;19968;-71
2023/06/18 08:02:51;;;;;;;;;;;25.00;99.90;;;;;;5029739;28;20339;-72
2023/06/18 08:05:18;;;;;;;;;;;25.10;99.90;;;;;;5034176;28;19975;-71
2023/06/18 08:07:45;;;;;;;;;;;25.10;99.90;;;;;;5037723;28;19968;-71
2023/06/18 08:10:12;;;;;;;;;;;25.10;99.90;;;;;;5033574;28;19925;-71
2023/06/18 08:12:38;;;;;;;;;;;25.30;99.90;;;;;;5031963;28;19929;-70
2023/06/18 08:15:06;;;;;;;;;;;25.20;99.90;;;;;;5032360;28;19929;-71
2023/06/18 08:17:32;;;;;;;;;;;25.20;99.90;;;;;;5031833;28;19933;-71
2023/06/18 08:20:01;;;;;;;;;;;25.00;99.90;;;;;;5032061;28;20408;-71
2023/06/18 08:22:27;;;;;;;;;;;24.90;99.90;;;;;;5032494;28;19925;-71
2023/06/18 08:24:54;;;;;;;;;;;25.00;99.90;;;;;;5032170;28;19925;-70
2023/06/18 08:27:21;;;;;;;;;;;25.00;99.90;;;;;;5032167;28;19929;-71
2023/06/18 08:29:48;;;;;;;;;;;25.10;99.90;;;;;;5032047;28;19966;-72
2023/06/18 08:32:15;;;;;;;;;;;25.00;99.90;;;;;;5031660;28;20404;-71
2023/06/18 08:34:42;;;;;;;;;;;25.00;99.90;;;;;;5029570;28;19933;-72
2023/06/18 08:37:11;;;;;;;;;;;25.20;99.90;;;;;;5032939;28;19929;-71
2023/06/18 08:39:38;;;;;;;;;;;25.40;99.90;;;;;;5030384;28;19925;-71
2023/06/18 08:42:05;;;;;;;;;;;25.50;99.90;;;;;;5035072;28;19925;-71
2023/06/18 08:44:33;;;;;;;;;;;25.80;99.90;;;;;;5031933;28;19933;-71
2023/06/18 08:47:01;;;;;;;;;;;25.80;99.90;;;;;;5031818;28;19937;-71
2023/06/18 08:49:28;;;;;;;;;;;26.00;99.90;;;;;;5031567;28;19973;-71
2023/06/18 08:51:56;;;;;;;;;;;26.10;99.90;;;;;;5032422;28;19925;-71
2023/06/18 08:54:28;;;;;;;;;;;26.10;99.90;;;;;;5031390;28;19925;-71
2023/06/18 08:56:57;;;;;;;;;;;26.30;99.90;;;;;;5050616;28;19933;-71
2023/06/18 08:59:25;;;;;;;;;;;26.20;99.90;;;;;;5033283;28;19932;-71
2023/06/18 09:01:52;;;;;;;;;;;26.20;99.90;;;;;;5031220;28;19944;-71
2023/06/18 09:04:21;;;;;;;;;;;26.30;99.90;;;;;;5045190;28;19925;-71
2023/06/18 09:06:48;;;;;;;;;;;26.50;99.90;;;;;;5025629;28;19944;-71
2023/06/18 09:09:18;;;;;;;;;;;26.60;99.90;;;;;;5045543;28;19925;-71
2023/06/18 09:11:46;;;;;;;;;;;26.70;99.90;;;;;;5025653;28;19929;-71
2023/06/18 09:14:15;;;;;;;;;;;26.90;99.90;;;;;;5031304;28;19925;-70
2023/06/18 09:16:42;;;;;;;;;;;27.10;99.90;;;;;;5030561;28;19929;-71
2023/06/18 09:19:09;;;;;;;;;;;27.20;99.90;;;;;;5030880;28;19925;-71
2023/06/18 09:21:39;;;;;;;;;;;27.40;99.90;;;;;;5029147;28;19925;-71
2023/06/18 09:24:07;;;;;;;;;;;27.50;99.90;;;;;;5028933;28;20455;-71
2023/06/18 09:26:34;;;;;;;;;;;27.60;99.90;;;;;;5046960;28;19929;-70
2023/06/18 09:29:04;;;;;;;;;;;27.80;99.90;;;;;;5032673;28;20379;-71
2023/06/18 09:31:31;;;;;;;;;;;28.00;99.90;;;;;;5047562;28;19925;-71
2023/06/18 09:33:58;;;;;;;;;;;28.30;99.90;;;;;;5030453;28;19925;-71
2023/06/18 09:36:25;;;;;;;;;;;28.40;99.90;;;;;;5030684;28;20297;-71
2023/06/18 09:38:53;;;;;;;;;;;28.50;99.90;;;;;;5024606;28;19929;-71
2023/06/18 09:41:20;;;;;;;;;;;28.70;99.90;;;;;;5030532;28;19972;-71
2023/06/18 09:43:48;;;;;;;;;;;28.60;99.90;;;;;;5036038;28;19975;-71
2023/06/18 09:46:18;;;;;;;;;;;28.80;99.90;;;;;;5028202;28;19925;-71
2023/06/18 09:48:47;;;;;;;;;;;29.00;99.90;;;;;;5024461;28;19929;-71
2023/06/18 09:51:21;;;;;;;;;;;29.20;99.90;;;;;;5030402;28;20002;-70
2023/06/18 09:53:55;;;;;;;;;;;29.40;99.90;;;;;;5046870;28;19971;-71
2023/06/18 09:56:21;;;;;;;;;;;29.60;99.90;;;;;;5030745;28;19936;-71
2023/06/18 09:58:49;;;;;;;;;;;29.40;99.90;;;;;;5030082;28;19929;-71
2023/06/18 10:01:17;;;;;;;;;;;29.20;99.90;;;;;;5027085;28;19929;-71
2023/06/18 10:03:45;;;;;;;;;;;29.00;99.90;;;;;;5031253;28;19968;-71
2023/06/18 10:06:12;;;;;;;;;;;29.00;99.90;;;;;;5031777;28;19974;-71
2023/06/18 10:08:41;;;;;;;;;;;29.40;99.90;;;;;;5028315;28;19925;-71
2023/06/18 10:11:09;;;;;;;;;;;29.30;99.90;;;;;;5031338;28;19925;-71
2023/06/18 10:13:39;;;;;;;;;;;29.40;99.90;;;;;;5029803;28;20016;-71
2023/06/18 10:16:06;;;;;;;;;;;29.50;99.90;;;;;;5030054;28;19932;-71
2023/06/18 10:18:35;;;;;;;;;;;29.50;99.90;;;;;;5046439;28;19964;-71
2023/06/18 10:21:04;;;;;;;;;;;29.60;99.90;;;;;;5028713;28;19929;-71
2023/06/18 10:23:30;;;;;;;;;;;29.50;99.90;;;;;;5029753;28;19932;-71
2023/06/18 10:25:58;;;;;;;;;;;29.60;99.90;;;;;;5029603;28;19925;-71
2023/06/18 10:28:25;;;;;;;;;;;29.60;99.90;;;;;;5029080;28;19979;-71
2023/06/18 10:30:51;;;;;;;;;;;29.70;99.90;;;;;;5029968;28;20019;-71
2023/06/18 10:33:18;;;;;;;;;;;29.70;99.90;;;;;;5029570;28;19964;-71
2023/06/18 10:35:47;;;;;;;;;;;29.70;99.90;;;;;;5029533;28;20009;-71
2023/06/18 10:38:13;;;;;;;;;;;29.60;99.90;;;;;;5029647;28;20051;-71
2023/06/18 10:40:40;;;;;;;;;;;29.40;99.90;;;;;;5029506;28;19968;-70
2023/06/18 10:43:09;;;;;;;;;;;29.40;99.90;;;;;;5030779;28;20008;-71
2023/06/18 10:45:35;;;;;;;;;;;29.50;99.90;;;;;;5029288;28;19968;-71
2023/06/18 10:48:16;;;;;;;;;;;29.50;99.90;;;;;;5030733;28;20020;-71
2023/06/18 10:51:10;;;;;;;;;;;29.60;99.90;;;;;;5028764;28;20028;-71
2023/06/18 10:53:36;;;;;;;;;;;29.70;99.90;;;;;;5026840;28;19925;-71
2023/06/18 10:56:03;;;;;;;;;;;30.00;99.90;;;;;;5029441;28;19933;-72
2023/06/18 10:58:32;;;;;;;;;;;30.00;99.90;;;;;;5030513;28;20339;-71
2023/06/18 11:00:59;;;;;;;;;;;29.90;99.90;;;;;;5030803;28;19925;-71
2023/06/18 11:03:33;;;;;;;;;;;30.10;99.90;;;;;;5030410;28;19956;-71
2023/06/18 11:06:01;;;;;;;;;;;30.30;99.90;;;;;;5039713;28;19999;-70
2023/06/18 11:08:29;;;;;;;;;;;30.50;99.90;;;;;;5030712;28;20347;-76
2023/06/18 11:11:01;;;;;;;;;;;30.60;99.90;;;;;;5029221;28;19979;-79
2023/06/18 11:13:30;;;;;;;;;;;30.50;99.90;;;;;;5027190;28;20400;-69
2023/06/18 11:15:59;;;;;;;;;;;30.40;99.90;;;;;;5046572;28;19967;-69
2023/06/18 11:18:26;;;;;;;;;;;30.20;99.90;;;;;;5030037;28;19925;-69
2023/06/18 11:20:54;;;;;;;;;;;30.10;99.90;;;;;;5030918;28;20396;-71
2023/06/18 11:23:23;;;;;;;;;;;30.00;99.90;;;;;;5029785;28;19932;-71
2023/06/18 11:25:50;;;;;;;;;;;30.00;99.90;;;;;;5029769;28;19975;-71
2023/06/18 11:28:17;;;;;;;;;;;29.70;99.90;;;;;;5044399;28;19932;-71
2023/06/18 11:30:47;;;;;;;;;;;29.70;99.90;;;;;;5030889;28;19983;-71
2023/06/18 11:33:21;;;;;;;;;;;29.60;99.90;;;;;;5030286;28;20424;-71
2023/06/18 11:35:47;;;;;;;;;;;29.50;99.90;;;;;;5028195;28;20384;-71
2023/06/18 11:38:14;;;;;;;;;;;29.60;99.90;;;;;;5027658;28;19929;-71
2023/06/18 11:40:49;;;;;;;;;;;29.60;99.90;;;;;;5030013;28;19926;-72
2023/06/18 11:43:16;;;;;;;;;;;29.70;99.90;;;;;;5046119;28;20315;-71
2023/06/18 11:45:46;;;;;;;;;;;29.80;99.90;;;;;;5033183;28;19925;-71
2023/06/18 11:48:12;;;;;;;;;;;29.80;99.90;;;;;;5050527;28;19925;-71
2023/06/18 11:50:39;;;;;;;;;;;29.90;99.90;;;;;;5030911;28;19924;-71
2023/06/18 11:53:06;;;;;;;;;;;29.70;99.90;;;;;;5055204;28;19933;-72
2023/06/18 11:55:34;;;;;;;;;;;29.60;99.90;;;;;;5031856;28;19925;-71
2023/06/18 11:58:03;;;;;;;;;;;29.50;99.90;;;;;;5032121;28;19925;-71
2023/06/18 12:00:30;;;;;;;;;;;29.50;99.90;;;;;;5035038;28;20432;-72
2023/06/18 12:02:59;;;;;;;;;;;29.40;99.90;;;;;;5053444;28;20451;-72
2023/06/18 12:05:26;;;;;;;;;;;29.40;99.90;;;;;;5032228;28;19975;-77
2023/06/18 12:07:53;;;;;;;;;;;29.50;99.90;;;;;;5027283;28;19991;-71
2023/06/18 12:10:20;;;;;;;;;;;29.40;99.90;;;;;;5031867;28;19925;-71
2023/06/18 12:12:52;;;;;;;;;;;29.40;99.90;;;;;;5031852;28;19925;-71
2023/06/18 12:15:25;;;;;;;;;;;29.20;99.90;;;;;;5032331;28;19940;-71
2023/06/18 12:17:54;;;;;;;;;;;29.00;99.90;;;;;;5032390;28;19932;-71
2023/06/18 12:20:21;;;;;;;;;;;28.80;99.90;;;;;;5029819;28;19924;-71
2023/06/18 12:22:48;;;;;;;;;;;28.90;99.90;;;;;;5034954;28;19987;-71
2023/06/18 12:25:15;;;;;;;;;;;28.90;99.90;;;;;;5032171;28;19925;-71
2023/06/18 12:27:43;;;;;;;;;;;28.90;99.90;;;;;;5029928;28;19925;-71
2023/06/18 12:30:11;;;;;;;;;;;28.90;99.90;;;;;;5031587;28;19925;-71
2023/06/18 12:32:40;;;;;;;;;;;29.00;99.90;;;;;;5031033;28;19932;-71
2023/06/18 12:35:10;;;;;;;;;;;29.00;99.90;;;;;;5030858;28;19971;-71
2023/06/18 12:37:37;;;;;;;;;;;29.10;99.90;;;;;;5034900;28;19926;-71
2023/06/18 12:40:07;;;;;;;;;;;29.20;99.90;;;;;;5028831;28;19925;-71
2023/06/18 12:42:34;;;;;;;;;;;29.20;99.90;;;;;;5047097;28;19932;-71
2023/06/18 12:45:02;;;;;;;;;;;29.20;99.90;;;;;;5031588;28;19936;-71
2023/06/18 12:47:29;;;;;;;;;;;29.20;99.90;;;;;;5047765;28;19925;-71
2023/06/18 12:49:57;;;;;;;;;;;29.20;99.90;;;;;;5048342;28;19925;-72
2023/06/18 12:52:26;;;;;;;;;;;29.30;99.90;;;;;;5030470;28;19925;-72
2023/06/18 12:54:52;;;;;;;;;;;29.40;99.90;;;;;;5029736;28;19929;-72
2023/06/18 12:57:20;;;;;;;;;;;29.30;99.90;;;;;;5032767;28;19959;-72
2023/06/18 12:59:50;;;;;;;;;;;29.40;99.90;;;;;;5045731;28;20312;-73
2023/06/18 13:02:17;;;;;;;;;;;29.40;99.90;;;;;;5042397;28;20028;-70
2023/06/18 13:04:45;;;;;;;;;;;29.50;99.90;;;;;;5031363;28;20028;-70
2023/06/18 13:07:13;;;;;;;;;;;29.50;99.90;;;;;;5027776;28;19925;-71
2023/06/18 13:09:40;;;;;;;;;;;29.70;99.90;;;;;;5031136;28;19925;-70
2023/06/18 13:12:08;;;;;;;;;;;30.00;99.90;;;;;;5032174;28;20398;-70
2023/06/18 13:14:34;;;;;;;;;;;30.30;99.90;;;;;;5030953;28;19929;-70
2023/06/18 13:17:02;;;;;;;;;;;30.60;99.90;;;;;;5030789;28;20020;-71
2023/06/18 13:19:30;;;;;;;;;;;30.70;99.90;;;;;;5031079;28;19925;-70
2023/06/18 13:21:57;;;;;;;;;;;30.90;99.90;;;;;;5028516;28;19926;-70
2023/06/18 13:24:27;;;;;;;;;;;31.00;99.90;;;;;;5030997;28;19925;-71
2023/06/18 13:26:54;;;;;;;;;;;31.10;99.90;;;;;;5030793;28;19932;-70
2023/06/18 13:29:21;;;;;;;;;;;31.10;99.90;;;;;;5030849;28;19925;-70
2023/06/18 13:31:48;;;;;;;;;;;31.20;99.90;;;;;;5028513;28;19952;-71
2023/06/18 13:34:14;;;;;;;;;;;31.30;99.90;;;;;;5030651;28;19975;-71
2023/06/18 13:36:42;;;;;;;;;;;31.50;99.90;;;;;;5027729;28;19925;-70
2023/06/18 13:39:09;;;;;;;;;;;31.40;99.90;;;;;;5030774;28;19925;-70
2023/06/18 13:41:37;;;;;;;;;;;31.40;99.90;;;;;;5031985;28;19940;-70
2023/06/18 13:44:04;;;;;;;;;;;31.30;99.90;;;;;;5030447;28;20397;-70
2023/06/18 13:46:31;;;;;;;;;;;31.10;99.90;;;;;;5030410;28;19925;-70
2023/06/18 13:48:58;;;;;;;;;;;30.70;99.90;;;;;;5028213;28;19931;-70
2023/06/18 13:51:24;;;;;;;;;;;30.40;99.90;;;;;;5046919;28;19967;-70
2023/06/18 13:53:51;;;;;;;;;;;30.40;99.90;;;;;;5026278;28;19940;-72
2023/06/18 13:56:18;;;;;;;;;;;30.30;99.90;;;;;;5029940;28;19925;-70
2023/06/18 13:58:46;;;;;;;;;;;30.30;99.90;;;;;;5044042;28;20389;-70
2023/06/18 14:01:13;;;;;;;;;;;30.20;99.90;;;;;;5030515;28;19925;-70
2023/06/18 14:03:40;;;;;;;;;;;30.10;99.90;;;;;;5027584;28;19925;-70
2023/06/18 14:06:07;;;;;;;;;;;30.00;99.90;;;;;;5042901;28;19925;-70
2023/06/18 14:08:34;;;;;;;;;;;30.00;99.90;;;;;;5030173;28;19925;-70
2023/06/18 14:11:00;;;;;;;;;;;30.00;99.90;;;;;;5031556;28;19925;-70
2023/06/18 14:13:27;;;;;;;;;;;30.00;99.90;;;;;;5030095;28;19925;-70
2023/06/18 14:15:56;;;;;;;;;;;30.00;99.90;;;;;;5030045;28;20351;-70
2023/06/18 14:18:22;;;;;;;;;;;30.00;99.90;;;;;;5046686;28;19929;-70
2023/06/18 14:20:49;;;;;;;;;;;30.00;99.90;;;;;;5028881;28;19969;-70